Time;durP1;ratioP1;P1;durP2;ratioP2;P2;SDS_P1;SDS_P2;PMS_P1;PMS_P2;Temp;Humidity;BMP_temperature;BMP_pressure;BME280_temperature;BME280_humidity;BME280_pressure;Samples;Min_cycle;Max_cycle;Signal;HPM_P1;HPM_P2
2022/05/15 00:00:37;;;;;;;28.02;13.98;;;13.80;76.30;;;;;;5010932;28;20072;-88
2022/05/15 00:00:42;;;;;;;24.40;12.93;;;13.70;76.80;;;;;;5011232;28;20029;-87
2022/05/15 00:03:18;;;;;;;24.10;13.48;;;13.70;76.90;;;;;;5006067;28;20041;-88
2022/05/15 00:05:49;;;;;;;28.05;12.63;;;13.80;76.90;;;;;;5002877;28;20059;-88
2022/05/15 00:08:15;;;;;;;22.05;12.85;;;13.70;77.00;;;;;;5012013;28;20037;-88
2022/05/15 00:10:43;;;;;;;26.00;13.30;;;13.80;77.00;;;;;;5009398;28;20029;-87
2022/05/15 00:13:10;;;;;;;21.63;12.02;;;13.70;77.10;;;;;;5020497;28;20038;-87
2022/05/15 00:15:36;;;;;;;21.77;11.90;;;13.80;77.10;;;;;;5015851;28;20033;-87
2022/05/15 00:18:03;;;;;;;20.25;12.52;;;13.80;77.10;;;;;;5018251;28;20137;-87
2022/05/15 00:20:30;;;;;;;22.70;13.32;;;13.80;77.00;;;;;;5025647;28;20030;-87
2022/05/15 00:22:56;;;;;;;25.85;13.07;;;13.80;77.10;;;;;;5039822;28;20034;-88
2022/05/15 00:25:22;;;;;;;20.83;13.13;;;13.80;77.20;;;;;;5032331;28;20049;-86
2022/05/15 00:27:49;;;;;;;21.88;13.50;;;13.80;77.10;;;;;;5025332;28;20029;-87
2022/05/15 00:30:17;;;;;;;19.25;12.55;;;13.80;77.10;;;;;;5020274;28;20076;-86
2022/05/15 00:32:44;;;;;;;26.95;13.55;;;13.80;77.10;;;;;;5025493;28;20038;-86
2022/05/15 00:35:11;;;;;;;24.65;13.70;;;13.80;76.90;;;;;;5017051;28;20026;-84
2022/05/15 00:37:37;;;;;;;23.08;13.68;;;13.80;76.90;;;;;;5045258;28;20033;-88
2022/05/15 00:40:05;;;;;;;27.30;13.15;;;13.80;76.80;;;;;;5016581;28;20064;-87
2022/05/15 00:42:31;;;;;;;23.30;13.23;;;13.80;76.90;;;;;;5025856;28;20079;-89
2022/05/15 00:44:58;;;;;;;26.60;13.15;;;13.80;77.00;;;;;;5036618;28;20117;-88
2022/05/15 00:47:24;;;;;;;26.30;12.95;;;13.70;77.20;;;;;;5045622;28;20049;-86
2022/05/15 00:49:52;;;;;;;23.77;13.63;;;13.70;77.40;;;;;;5021160;28;20032;-85
2022/05/15 00:52:24;;;;;;;22.83;13.10;;;13.70;77.40;;;;;;5015212;28;20413;-86
2022/05/15 00:54:56;;;;;;;20.45;13.82;;;13.70;77.50;;;;;;5024986;28;20041;-85
2022/05/15 00:57:50;;;;;;;27.95;15.35;;;13.60;77.70;;;;;;5024523;28;21518;-87
2022/05/15 01:00:25;;;;;;;25.98;15.32;;;13.50;78.40;;;;;;5018819;28;20065;-85
2022/05/15 01:03:09;;;;;;;26.65;15.80;;;13.40;79.10;;;;;;5031967;28;20073;-90
2022/05/15 01:05:39;;;;;;;27.77;15.63;;;13.40;79.50;;;;;;5036076;28;20041;-86
2022/05/15 01:08:06;;;;;;;30.63;16.98;;;13.30;79.60;;;;;;5018104;28;20041;-85
2022/05/15 01:10:35;;;;;;;28.27;16.20;;;13.30;80.00;;;;;;5024294;28;20133;-87
2022/05/15 01:13:01;;;;;;;27.08;16.05;;;13.20;80.40;;;;;;5020651;28;20033;-85
2022/05/15 01:15:29;;;;;;;29.15;15.88;;;13.10;80.80;;;;;;5025686;28;20026;-87
2022/05/15 01:17:56;;;;;;;29.95;16.75;;;13.10;81.00;;;;;;5021654;28;20337;-87
2022/05/15 01:20:27;;;;;;;25.60;15.95;;;13.10;81.10;;;;;;5016225;28;20057;-88
2022/05/15 01:22:53;;;;;;;30.73;16.92;;;13.10;81.10;;;;;;5021266;28;20032;-87
2022/05/15 01:25:26;;;;;;;30.70;16.60;;;13.10;81.10;;;;;;5025789;28;20691;-87
2022/05/15 01:27:59;;;;;;;25.55;16.75;;;13.10;81.30;;;;;;5031197;28;20461;-88
2022/05/15 01:30:25;;;;;;;34.90;17.13;;;13.10;81.30;;;;;;5041966;28;20041;-86
2022/05/15 01:32:51;;;;;;;31.02;17.30;;;13.10;81.50;;;;;;5032968;28;20504;-87
2022/05/15 01:35:18;;;;;;;33.25;17.85;;;13.10;81.50;;;;;;5036764;28;20110;-87
2022/05/15 01:37:45;;;;;;;28.80;17.58;;;13.00;81.60;;;;;;5032171;28;20033;-86
2022/05/15 01:40:13;;;;;;;26.30;16.17;;;13.10;81.70;;;;;;5042617;28;20357;-88
2022/05/15 01:42:41;;;;;;;29.83;16.58;;;13.00;81.80;;;;;;5038196;28;20045;-86
2022/05/15 01:45:08;;;;;;;32.50;18.92;;;13.10;81.70;;;;;;5046890;28;20536;-88
2022/05/15 01:47:34;;;;;;;29.27;17.85;;;13.00;81.60;;;;;;5038008;28;20108;-87
2022/05/15 01:50:01;;;;;;;30.48;17.65;;;13.00;81.40;;;;;;5038938;28;20041;-87
2022/05/15 01:52:28;;;;;;;30.83;17.77;;;13.00;81.30;;;;;;5025154;28;20079;-87
2022/05/15 01:54:55;;;;;;;27.95;17.63;;;12.90;81.60;;;;;;5044005;28;20454;-87
2022/05/15 01:57:22;;;;;;;31.25;18.95;;;12.90;81.70;;;;;;5034074;28;20044;-84
2022/05/15 01:59:48;;;;;;;31.85;17.17;;;13.00;81.60;;;;;;5033450;28;20050;-87
2022/05/15 02:02:14;;;;;;;26.63;17.23;;;12.90;81.60;;;;;;5034322;28;20108;-86
2022/05/15 02:04:40;;;;;;;32.58;18.42;;;12.90;81.60;;;;;;5015918;28;20087;-88
2022/05/15 02:07:07;;;;;;;34.05;17.98;;;12.90;81.50;;;;;;5034650;28;20057;-88
2022/05/15 02:09:32;;;;;;;25.23;16.85;;;12.90;81.60;;;;;;5036311;28;20473;-88
2022/05/15 02:11:58;;;;;;;32.55;18.05;;;12.80;81.70;;;;;;5037855;28;20045;-87
2022/05/15 02:14:24;;;;;;;28.52;17.35;;;12.80;81.70;;;;;;5031394;28;20139;-86
2022/05/15 02:16:50;;;;;;;33.38;18.00;;;12.80;81.70;;;;;;5037237;28;20524;-87
2022/05/15 02:19:16;;;;;;;29.38;17.40;;;12.90;81.70;;;;;;5034858;28;20044;-86
2022/05/15 02:21:44;;;;;;;26.27;18.02;;;12.80;81.60;;;;;;5020532;28;20038;-88
2022/05/15 02:24:10;;;;;;;27.35;17.60;;;12.80;81.60;;;;;;5031899;28;20087;-90
2022/05/15 02:26:37;;;;;;;32.50;18.42;;;12.80;81.70;;;;;;5041234;28;20048;-88
2022/05/15 02:29:03;;;;;;;30.38;18.70;;;12.70;81.70;;;;;;5031353;28;20491;-86
2022/05/15 02:31:29;;;;;;;26.02;17.17;;;12.70;81.90;;;;;;5032218;28;20041;-88
2022/05/15 02:33:55;;;;;;;34.00;17.27;;;12.70;81.80;;;;;;5029897;28;20688;-87
2022/05/15 02:36:21;;;;;;;28.90;18.25;;;12.70;81.80;;;;;;5039149;28;20055;-86
2022/05/15 02:38:46;;;;;;;29.23;17.38;;;12.60;82.00;;;;;;5030386;28;20056;-88
2022/05/15 02:41:12;;;;;;;30.70;18.25;;;12.70;82.00;;;;;;5029964;28;20045;-89
2022/05/15 02:43:38;;;;;;;35.33;19.40;;;12.70;82.00;;;;;;5027892;28;20041;-87
2022/05/15 02:46:03;;;;;;;28.08;18.55;;;12.60;82.00;;;;;;5026471;28;20825;-86
2022/05/15 02:51:13;;;;;;;29.55;18.10;;;12.60;82.20;;;;;;5016959;28;20062;-88
2022/05/15 02:53:44;;;;;;;29.20;20.02;;;12.60;82.30;;;;;;5019997;28;20037;-88
2022/05/15 02:56:19;;;;;;;30.83;19.63;;;12.60;82.10;;;;;;5027850;28;20037;-88
2022/05/15 02:58:46;;;;;;;27.13;18.35;;;12.60;82.10;;;;;;5021829;28;20036;-86
2022/05/15 03:01:13;;;;;;;25.88;17.98;;;12.60;82.20;;;;;;5019025;28;20091;-86
2022/05/15 03:03:39;;;;;;;31.52;18.55;;;12.60;82.20;;;;;;5025653;28;20056;-87
2022/05/15 03:06:06;;;;;;;29.20;18.65;;;12.60;82.20;;;;;;5028905;28;20471;-87
2022/05/15 03:08:46;;;;;;;28.67;17.45;;;12.60;82.10;;;;;;5022344;28;20030;-88
2022/05/15 03:11:12;;;;;;;29.33;18.55;;;12.60;82.30;;;;;;5024086;28;20355;-88
2022/05/15 03:13:38;;;;;;;28.60;17.73;;;12.60;82.20;;;;;;5027004;28;20052;-87
2022/05/15 03:16:06;;;;;;;31.05;19.13;;;12.60;82.30;;;;;;5016158;28;20030;-87
2022/05/15 03:18:32;;;;;;;32.00;18.67;;;12.50;82.20;;;;;;5035446;28;20038;-87
2022/05/15 03:20:59;;;;;;;25.63;17.50;;;12.50;82.10;;;;;;5032710;28;20057;-87
2022/05/15 03:23:25;;;;;;;29.65;17.98;;;12.50;82.20;;;;;;5028015;28;20052;-87
2022/05/15 03:25:50;;;;;;;23.00;17.05;;;12.50;82.20;;;;;;5027785;28;20170;-86
2022/05/15 03:28:16;;;;;;;28.98;18.42;;;12.40;82.20;;;;;;5041021;28;20025;-86
2022/05/15 03:30:43;;;;;;;27.67;18.35;;;12.50;82.20;;;;;;5024432;28;20030;-86
2022/05/15 03:33:10;;;;;;;33.28;19.40;;;12.40;82.20;;;;;;5022079;28;20034;-86
2022/05/15 03:35:39;;;;;;;29.50;17.50;;;12.40;82.30;;;;;;5030299;28;20056;-86
2022/05/15 03:38:06;;;;;;;29.73;18.40;;;12.30;82.40;;;;;;5015911;28;20053;-86
2022/05/15 03:40:32;;;;;;;27.92;18.10;;;12.40;82.30;;;;;;5019484;28;20133;-86
2022/05/15 03:42:58;;;;;;;29.63;19.00;;;12.40;82.20;;;;;;5027294;28;20203;-87
2022/05/15 03:45:24;;;;;;;32.33;18.92;;;12.30;82.30;;;;;;5024982;28;20473;-87
2022/05/15 03:47:52;;;;;;;27.00;18.08;;;12.30;82.40;;;;;;5024427;28;20476;-86
2022/05/15 03:50:22;;;;;;;33.88;18.77;;;12.30;82.60;;;;;;5038420;28;20026;-86
2022/05/15 03:52:48;;;;;;;32.42;19.27;;;12.30;82.70;;;;;;5056172;28;20049;-86
2022/05/15 03:55:14;;;;;;;28.88;18.95;;;12.20;82.70;;;;;;5031696;28;20095;-86
2022/05/15 03:57:40;;;;;;;31.75;19.48;;;12.20;82.90;;;;;;5022024;28;20049;-86
2022/05/15 04:00:10;;;;;;;29.08;19.30;;;12.20;83.10;;;;;;5019559;28;20046;-86
2022/05/15 04:02:38;;;;;;;25.88;17.98;;;12.20;83.00;;;;;;5022112;28;20041;-88
2022/05/15 04:05:07;;;;;;;32.80;19.92;;;12.30;82.90;;;;;;5015428;28;20626;-86
2022/05/15 04:07:33;;;;;;;25.85;17.67;;;12.30;82.90;;;;;;5014523;28;20041;-86
2022/05/15 04:09:59;;;;;;;29.40;17.60;;;12.30;82.60;;;;;;5015118;28;20033;-84
2022/05/15 04:12:25;;;;;;;28.95;16.85;;;12.40;82.50;;;;;;5027194;28;20113;-87
2022/05/15 04:14:50;;;;;;;34.17;18.73;;;12.40;82.30;;;;;;5010486;28;20446;-87
2022/05/15 04:17:16;;;;;;;29.08;18.00;;;12.50;82.10;;;;;;5015284;28;20109;-86
2022/05/15 04:19:42;;;;;;;27.55;17.35;;;12.50;82.00;;;;;;5023564;28;20033;-86
2022/05/15 04:22:08;;;;;;;33.63;17.63;;;12.60;81.50;;;;;;5014960;28;20489;-88
2022/05/15 04:24:35;;;;;;;29.38;17.30;;;12.60;81.30;;;;;;5025137;28;20481;-86
2022/05/15 04:27:02;;;;;;;35.17;18.48;;;12.70;81.30;;;;;;5014947;28;20053;-86
2022/05/15 04:29:28;;;;;;;28.60;17.20;;;12.70;81.10;;;;;;5014201;28;20485;-87
2022/05/15 04:31:57;;;;;;;30.23;18.67;;;12.80;81.00;;;;;;5022674;28;20755;-87
2022/05/15 04:34:24;;;;;;;31.85;18.80;;;12.90;80.60;;;;;;5030950;28;20099;-86
2022/05/15 04:36:50;;;;;;;29.17;16.60;;;12.90;80.40;;;;;;5028029;28;20041;-87
2022/05/15 04:39:16;;;;;;;31.48;16.70;;;13.00;80.20;;;;;;5023274;28;20040;-88
2022/05/15 04:41:42;;;;;;;26.95;16.95;;;13.00;79.80;;;;;;5015393;28;20401;-87
2022/05/15 04:44:08;;;;;;;27.75;16.30;;;13.10;79.90;;;;;;5020736;28;20071;-87
2022/05/15 04:46:34;;;;;;;26.05;15.30;;;13.30;79.70;;;;;;5016834;28;20532;-88
2022/05/15 04:49:00;;;;;;;28.55;16.70;;;13.40;79.10;;;;;;5013877;28;20041;-88
2022/05/15 04:51:26;;;;;;;24.67;15.68;;;13.40;79.00;;;;;;5018059;28;20046;-88
2022/05/15 04:53:52;;;;;;;31.17;16.33;;;13.50;79.00;;;;;;5019440;28;20108;-87
2022/05/15 04:56:18;;;;;;;26.38;15.98;;;13.60;78.50;;;;;;5016546;28;20045;-86
2022/05/15 04:58:44;;;;;;;22.88;14.77;;;13.60;78.50;;;;;;5020942;28;20074;-86
2022/05/15 05:01:09;;;;;;;27.27;16.17;;;13.70;78.10;;;;;;5020455;28;20649;-88
2022/05/15 05:03:35;;;;;;;26.13;15.98;;;13.90;77.80;;;;;;5028445;28;20051;-86
2022/05/15 05:06:01;;;;;;;26.85;15.05;;;13.90;77.30;;;;;;5040440;28;20049;-86
2022/05/15 05:08:27;;;;;;;24.70;15.40;;;14.00;76.80;;;;;;5043211;28;20396;-87
2022/05/15 05:10:52;;;;;;;25.33;15.48;;;14.00;76.70;;;;;;5022274;28;20033;-87
2022/05/15 05:13:18;;;;;;;27.35;15.82;;;14.10;76.70;;;;;;5021318;28;20112;-88
2022/05/15 05:15:44;;;;;;;26.60;15.13;;;14.30;76.40;;;;;;5034053;28;20393;-87
2022/05/15 05:18:14;;;;;;;26.63;15.65;;;14.60;75.50;;;;;;5010886;28;20038;-88
2022/05/15 05:20:39;;;;;;;28.60;15.60;;;15.10;74.50;;;;;;5017903;28;20030;-86
2022/05/15 05:23:05;;;;;;;25.75;13.70;;;15.60;72.10;;;;;;5024256;28;20049;-87
2022/05/15 05:25:31;;;;;;;24.00;12.73;;;16.30;69.90;;;;;;5017894;28;20508;-86
2022/05/15 05:27:57;;;;;;;26.02;13.35;;;16.90;68.00;;;;;;5016475;28;20637;-85
2022/05/15 05:30:24;;;;;;;25.17;13.55;;;17.30;64.90;;;;;;5020778;28;20119;-83
2022/05/15 05:32:50;;;;;;;21.20;12.55;;;17.60;65.20;;;;;;5017450;28;20491;-81
2022/05/15 05:35:18;;;;;;;21.92;12.57;;;18.00;63.50;;;;;;5015925;28;20041;-86
2022/05/15 05:37:44;;;;;;;23.10;12.65;;;18.20;62.50;;;;;;5021901;28;20026;-86
2022/05/15 05:40:10;;;;;;;22.38;12.80;;;18.00;62.00;;;;;;5017042;28;20042;-86
2022/05/15 05:42:36;;;;;;;29.83;14.30;;;17.50;63.90;;;;;;5015023;28;20452;-86
2022/05/15 05:45:03;;;;;;;26.25;13.00;;;17.60;64.30;;;;;;5017903;28;20121;-87
2022/05/15 05:47:30;;;;;;;20.70;12.57;;;18.00;62.90;;;;;;5015122;28;20038;-87
2022/05/15 05:49:56;;;;;;;20.75;12.35;;;18.70;60.70;;;;;;5023890;28;20038;-87
2022/05/15 05:52:23;;;;;;;23.70;13.23;;;19.20;58.90;;;;;;5022513;28;20046;-86
2022/05/15 05:54:50;;;;;;;26.63;13.95;;;19.30;58.50;;;;;;5024457;28;20095;-87
2022/05/15 05:57:16;;;;;;;25.90;14.63;;;19.00;59.20;;;;;;5022851;28;20044;-85
2022/05/15 05:59:42;;;;;;;26.38;14.68;;;18.30;60.70;;;;;;5014678;28;20068;-86
2022/05/15 06:02:08;;;;;;;27.17;15.45;;;17.80;62.40;;;;;;5016574;28;20060;-86
2022/05/15 06:04:40;;;;;;;27.27;14.35;;;17.30;63.50;;;;;;5014407;28;20091;-85
2022/05/15 06:07:14;;;;;;;24.75;14.43;;;17.00;65.50;;;;;;5016621;28;20046;-87
2022/05/15 06:09:43;;;;;;;21.67;14.20;;;16.80;66.60;;;;;;5011267;28;20148;-87
2022/05/15 06:12:10;;;;;;;25.17;13.65;;;16.90;66.80;;;;;;5014042;28;20097;-85
2022/05/15 06:14:36;;;;;;;21.90;13.48;;;17.00;66.60;;;;;;5009022;28;20397;-85
2022/05/15 06:17:02;;;;;;;26.08;13.82;;;17.00;66.30;;;;;;5016535;28;20144;-85
2022/05/15 06:19:28;;;;;;;28.88;15.60;;;17.10;66.10;;;;;;5014416;28;20454;-87
2022/05/15 06:21:54;;;;;;;25.58;13.55;;;17.10;65.90;;;;;;5015112;28;20096;-84
2022/05/15 06:24:20;;;;;;;21.88;14.27;;;17.10;67.10;;;;;;5010412;28;20390;-83
2022/05/15 06:26:46;;;;;;;28.48;13.90;;;17.30;66.40;;;;;;5012296;28;20042;-84
2022/05/15 06:29:11;;;;;;;25.23;14.32;;;17.50;66.00;;;;;;5007106;28;20054;-84
2022/05/15 06:31:37;;;;;;;26.02;14.32;;;17.70;65.10;;;;;;5024769;28;20492;-84
2022/05/15 06:34:04;;;;;;;25.90;15.50;;;17.90;64.40;;;;;;5014090;28;20434;-84
2022/05/15 06:36:30;;;;;;;22.95;13.88;;;17.90;64.00;;;;;;5016492;28;20144;-84
2022/05/15 06:38:56;;;;;;;22.52;13.98;;;17.90;64.10;;;;;;5012251;28;20045;-83
2022/05/15 06:41:22;;;;;;;24.30;13.38;;;18.20;64.10;;;;;;5022154;28;20041;-85
2022/05/15 06:43:48;;;;;;;21.95;13.80;;;18.40;63.10;;;;;;5033113;28;20038;-83
2022/05/15 06:46:14;;;;;;;22.98;13.05;;;18.40;62.20;;;;;;5018850;28;20084;-84
2022/05/15 06:48:40;;;;;;;20.30;13.35;;;18.60;62.90;;;;;;5016841;28;20485;-85
2022/05/15 06:51:06;;;;;;;23.15;13.02;;;18.70;62.30;;;;;;5015186;28;20031;-86
2022/05/15 06:53:33;;;;;;;23.17;13.30;;;18.80;62.10;;;;;;5017807;28;20037;-85
2022/05/15 06:58:42;;;;;;;22.30;12.20;;;19.00;61.60;;;;;;5011165;28;20041;-85
2022/05/15 07:01:08;;;;;;;19.33;12.27;;;19.20;62.00;;;;;;5018328;28;20126;-85
2022/05/15 07:03:34;;;;;;;22.52;13.10;;;19.60;60.90;;;;;;5016817;28;20800;-83
2022/05/15 07:06:00;;;;;;;26.13;13.70;;;19.60;60.50;;;;;;5014332;28;20045;-86
2022/05/15 07:08:26;;;;;;;20.13;11.23;;;19.70;60.50;;;;;;5012938;28;20052;-85
2022/05/15 07:10:52;;;;;;;20.83;11.95;;;19.90;59.10;;;;;;5010337;28;20053;-85
2022/05/15 07:13:18;;;;;;;18.98;11.23;;;20.10;58.70;;;;;;5009861;28;20465;-84
2022/05/15 07:15:43;;;;;;;20.10;11.23;;;20.20;57.40;;;;;;5009980;28;20030;-83
2022/05/15 07:18:09;;;;;;;18.70;11.07;;;20.40;57.40;;;;;;5006162;28;20116;-83
2022/05/15 07:20:35;;;;;;;20.98;11.40;;;20.60;56.30;;;;;;5020344;28;20046;-83
2022/05/15 07:23:02;;;;;;;20.20;10.45;;;20.70;57.00;;;;;;5015617;28;20493;-84
2022/05/15 07:25:28;;;;;;;19.15;10.13;;;21.00;55.10;;;;;;5014692;28;20457;-82
2022/05/15 07:27:53;;;;;;;20.67;9.40;;;21.30;54.40;;;;;;5032408;28;20137;-83
2022/05/15 07:30:19;;;;;;;15.15;8.60;;;21.50;53.60;;;;;;5012222;28;20049;-81
2022/05/15 07:32:45;;;;;;;19.88;8.85;;;21.60;53.10;;;;;;5007616;28;20887;-86
2022/05/15 07:35:11;;;;;;;18.38;9.05;;;21.70;51.80;;;;;;5016836;28;20034;-86
2022/05/15 07:37:37;;;;;;;19.10;8.13;;;21.60;52.40;;;;;;5011580;28;20516;-82
2022/05/15 07:40:03;;;;;;;17.45;9.13;;;21.60;51.70;;;;;;5014996;28;20053;-84
2022/05/15 07:42:29;;;;;;;17.13;10.40;;;21.80;51.90;;;;;;5012311;28;20124;-85
2022/05/15 07:44:57;;;;;;;21.60;9.15;;;21.80;51.70;;;;;;5008896;28;20032;-84
2022/05/15 07:47:24;;;;;;;16.13;7.88;;;21.80;52.10;;;;;;5014789;28;20048;-84
2022/05/15 07:49:50;;;;;;;15.77;7.90;;;22.10;50.60;;;;;;5013325;28;20038;-84
2022/05/15 07:52:16;;;;;;;15.38;7.07;;;22.10;50.10;;;;;;5007746;28;20512;-83
2022/05/15 07:54:41;;;;;;;15.38;7.75;;;22.10;49.80;;;;;;5011032;28;20288;-87
2022/05/15 07:57:07;;;;;;;14.43;7.50;;;22.30;49.30;;;;;;5008998;28;20046;-83
2022/05/15 07:59:33;;;;;;;16.35;8.23;;;22.50;48.70;;;;;;5010058;28;20096;-85
2022/05/15 08:02:02;;;;;;;16.20;7.43;;;22.60;49.20;;;;;;5015544;28;20009;-86
2022/05/15 08:04:28;;;;;;;22.48;8.55;;;22.60;49.30;;;;;;5027192;28;20045;-86
2022/05/15 08:09:38;;;;;;;14.90;6.80;;;22.90;47.60;;;;;;5014309;28;20040;-83
2022/05/15 08:12:05;;;;;;;11.98;7.00;;;23.10;47.70;;;;;;5008776;28;20667;-83
2022/05/15 08:14:30;;;;;;;20.38;7.75;;;23.30;47.10;;;;;;5009824;28;20061;-83
2022/05/15 08:16:56;;;;;;;14.50;7.03;;;23.50;46.80;;;;;;5019712;28;20036;-86
2022/05/15 08:24:52;;;;;;;14.50;6.70;;;23.30;47.20;;;;;;5014740;28;19924;-83
2022/05/15 08:27:18;;;;;;;12.20;6.18;;;23.50;46.60;;;;;;5010147;28;20052;-83
2022/05/15 08:29:44;;;;;;;13.38;6.10;;;23.70;45.90;;;;;;5019429;28;20394;-84
2022/05/15 08:32:10;;;;;;;16.15;5.80;;;23.80;45.70;;;;;;5021415;28;20029;-87
2022/05/15 08:34:36;;;;;;;12.10;5.15;;;24.00;45.50;;;;;;5016108;28;20045;-85
2022/05/15 08:37:02;;;;;;;12.95;5.68;;;24.40;45.50;;;;;;5021979;28;20038;-83
2022/05/15 08:39:29;;;;;;;13.38;6.35;;;24.30;44.10;;;;;;5016517;28;20046;-84
2022/05/15 08:42:27;;;;;;;11.65;5.80;;;24.30;43.90;;;;;;5014356;28;20108;-82
2022/05/15 08:44:58;;;;;;;11.35;5.25;;;24.40;43.90;;;;;;5005487;28;20037;-83
2022/05/15 08:47:40;;;;;;;15.50;6.05;;;24.70;43.60;;;;;;5009310;28;20523;-82
2022/05/15 08:50:19;;;;;;;12.35;5.32;;;24.90;43.20;;;;;;5027902;28;20046;-82
2022/05/15 08:52:59;;;;;;;12.98;5.15;;;24.70;43.10;;;;;;5010514;28;20030;-81
2022/05/15 08:55:38;;;;;;;14.98;6.05;;;24.80;42.60;;;;;;5015530;28;20064;-81
2022/05/15 08:58:08;;;;;;;15.40;5.75;;;24.90;42.70;;;;;;5008238;28;20037;-82
2022/05/15 09:00:42;;;;;;;13.10;4.97;;;25.00;41.70;;;;;;5013958;28;20041;-83
2022/05/15 09:03:21;;;;;;;12.15;5.40;;;25.00;42.00;;;;;;5012580;28;20037;-81
2022/05/15 09:06:01;;;;;;;10.77;5.10;;;25.20;41.60;;;;;;5018683;28;20389;-82
2022/05/15 09:08:32;;;;;;;12.00;4.90;;;25.40;41.00;;;;;;5009129;28;20052;-85
2022/05/15 09:11:06;;;;;;;11.68;4.25;;;25.60;40.80;;;;;;5023768;28;20080;-83
2022/05/15 09:13:42;;;;;;;10.85;4.38;;;25.60;40.50;;;;;;5028409;28;20053;-83
2022/05/15 09:16:26;;;;;;;15.52;4.90;;;25.70;40.50;;;;;;5012929;28;20115;-84
2022/05/15 09:18:59;;;;;;;12.05;4.47;;;25.70;40.50;;;;;;5017580;28;20594;-83
2022/05/15 09:21:24;;;;;;;10.27;4.45;;;25.80;40.40;;;;;;5020856;28;20045;-85
2022/05/15 09:23:53;;;;;;;10.77;4.55;;;26.00;40.20;;;;;;5024131;28;20616;-84
2022/05/15 09:26:40;;;;;;;11.98;4.38;;;26.10;39.00;;;;;;5013002;28;20394;-86
2022/05/15 09:29:15;;;;;;;10.00;4.15;;;26.00;39.90;;;;;;5018519;28;20435;-85
2022/05/15 09:31:42;;;;;;;10.65;4.00;;;26.10;39.50;;;;;;5007655;28;20041;-82
2022/05/15 09:34:20;;;;;;;11.65;4.88;;;26.30;39.70;;;;;;5017759;28;20037;-85
2022/05/15 09:36:48;;;;;;;10.77;3.88;;;25.80;39.50;;;;;;5013221;28;20054;-84
2022/05/15 09:40:01;;;;;;;9.07;3.85;;;26.10;39.40;;;;;;5012009;28;20436;-85
2022/05/15 09:45:14;;;;;;;11.38;3.72;;;26.50;39.00;;;;;;5010047;28;20184;-85
2022/05/15 09:47:58;;;;;;;10.13;4.03;;;26.80;39.00;;;;;;5015451;28;20050;-85
2022/05/15 09:50:59;;;;;;;10.90;4.13;;;26.80;38.10;;;;;;5017603;28;20041;-83
2022/05/15 09:53:36;;;;;;;13.25;4.40;;;26.80;37.50;;;;;;5024045;28;20029;-85
2022/05/15 09:56:07;;;;;;;13.85;4.30;;;27.00;37.60;;;;;;5027688;28;20042;-84
2022/05/15 09:58:45;;;;;;;11.43;4.03;;;26.80;37.40;;;;;;5014649;28;20434;-85
2022/05/15 10:01:31;;;;;;;10.07;3.35;;;27.00;38.50;;;;;;5010698;28;20029;-83
2022/05/15 10:03:58;;;;;;;10.60;3.50;;;27.20;37.20;;;;;;5015471;28;20033;-84
2022/05/15 10:06:28;;;;;;;7.75;3.08;;;27.30;35.60;;;;;;5011809;28;20151;-84
2022/05/15 10:09:10;;;;;;;14.05;3.83;;;27.40;35.70;;;;;;5020942;28;20049;-82
2022/05/15 10:11:39;;;;;;;9.32;3.10;;;27.50;36.50;;;;;;5014791;28;20566;-82
2022/05/15 10:14:07;;;;;;;11.63;3.10;;;27.70;36.00;;;;;;5010029;28;20477;-83
2022/05/15 10:16:45;;;;;;;10.07;3.38;;;28.00;35.40;;;;;;5012095;28;20045;-84
2022/05/15 10:19:17;;;;;;;9.63;3.25;;;27.80;35.80;;;;;;5014505;28;20026;-84
2022/05/15 10:21:49;;;;;;;11.77;3.40;;;27.80;35.80;;;;;;5017658;28;20038;-86
2022/05/15 10:24:20;;;;;;;9.25;2.83;;;27.70;35.00;;;;;;5016132;28;20121;-83
2022/05/15 10:27:04;;;;;;;9.35;3.15;;;27.70;34.60;;;;;;5013235;28;20423;-81
2022/05/15 10:29:58;;;;;;;10.25;3.40;;;27.70;34.90;;;;;;5014556;28;20044;-81
2022/05/15 10:32:42;;;;;;;8.82;3.55;;;27.60;36.10;;;;;;5015974;28;20103;-83
2022/05/15 10:35:19;;;;;;;;;;;27.80;35.00;;;;;;5019880;28;20464;-81
2022/05/15 10:38:09;;;;;;;11.63;3.25;;;27.70;35.00;;;;;;5008041;28;19913;-82
2022/05/15 10:40:45;;;;;;;12.00;3.75;;;27.70;34.40;;;;;;5018305;28;20076;-84
2022/05/15 10:43:22;;;;;;;10.32;3.03;;;27.80;34.10;;;;;;5014347;28;20033;-85
2022/05/15 10:46:11;;;;;;;7.60;2.95;;;27.80;34.40;;;;;;5014355;28;20057;-83
2022/05/15 10:48:45;;;;;;;11.45;3.45;;;27.60;35.00;;;;;;5012629;28;20352;-82
2022/05/15 10:51:29;;;;;;;7.28;2.90;;;27.40;34.10;;;;;;5021225;28;20187;-84
2022/05/15 10:57:29;;;;;;;9.75;3.10;;;27.60;33.90;;;;;;5015268;28;20040;-80
2022/05/15 11:00:05;;;;;;;9.13;2.90;;;28.10;34.10;;;;;;5012116;28;20082;-80
2022/05/15 11:03:09;;;;;;;6.05;2.80;;;28.30;33.60;;;;;;5008523;28;20045;-80
2022/05/15 11:05:59;;;;;;;8.27;2.67;;;28.50;33.70;;;;;;5005474;28;20037;-81
2022/05/15 11:09:02;;;;;;;9.25;2.90;;;28.70;32.50;;;;;;5011815;28;20045;-82
2022/05/15 11:11:38;;;;;;;10.38;3.10;;;28.70;33.00;;;;;;4998843;28;20044;-83
2022/05/15 11:14:10;;;;;;;7.70;2.85;;;28.30;33.00;;;;;;5005102;28;20030;-82
2022/05/15 11:16:43;;;;;;;9.25;2.88;;;28.30;34.00;;;;;;5019294;28;20053;-81
2022/05/15 11:19:34;;;;;;;5.35;2.20;;;28.70;33.20;;;;;;5024323;28;20049;-82
2022/05/15 11:22:22;;;;;;;11.25;2.90;;;28.70;31.50;;;;;;5018596;28;20064;-82
2022/05/15 11:25:11;;;;;;;9.90;2.40;;;28.60;31.80;;;;;;5016751;28;20473;-83
2022/05/15 11:27:49;;;;;;;7.13;2.20;;;28.60;32.00;;;;;;5007231;28;20143;-83
2022/05/15 11:30:21;;;;;;;7.22;2.40;;;28.80;31.70;;;;;;5013276;28;20501;-81
2022/05/15 11:32:54;;;;;;;6.38;2.70;;;28.80;32.00;;;;;;5012201;28;20509;-83
2022/05/15 11:35:22;;;;;;;5.65;2.88;;;28.10;32.20;;;;;;5005388;28;20034;-81
2022/05/15 11:37:57;;;;;;;8.57;2.83;;;28.20;32.80;;;;;;5020514;28;20065;-82
2022/05/15 11:40:31;;;;;;;9.68;2.60;;;28.40;32.90;;;;;;5008068;28;20057;-81
2022/05/15 11:42:57;;;;;;;6.18;2.45;;;28.60;32.10;;;;;;5006158;28;20901;-83
2022/05/15 11:45:30;;;;;;;5.97;2.17;;;28.50;32.50;;;;;;5010879;28;20480;-81
2022/05/15 11:48:01;;;;;;;7.72;3.05;;;28.60;31.70;;;;;;5022864;28;20067;-83
2022/05/15 11:50:51;;;;;;;9.80;2.92;;;28.70;31.20;;;;;;5022483;28;20590;-82
2022/05/15 11:53:43;;;;;;;5.20;2.45;;;28.80;31.80;;;;;;5009753;28;20088;-83
2022/05/15 11:56:39;;;;;;;7.68;2.72;;;28.50;31.90;;;;;;5008880;28;20068;-80
2022/05/15 11:59:14;;;;;;;6.63;2.70;;;28.70;32.40;;;;;;5006509;28;20370;-83
2022/05/15 12:01:40;;;;;;;7.30;2.35;;;29.00;32.20;;;;;;5018501;28;20021;-80
2022/05/15 12:04:19;;;;;;;6.75;2.60;;;29.00;31.70;;;;;;5014303;28;20046;-82
2022/05/15 12:07:08;;;;;;;8.00;2.33;;;29.20;31.90;;;;;;5017290;28;20077;-80
2022/05/15 12:09:39;;;;;;;5.53;2.65;;;29.30;31.40;;;;;;4980242;28;20069;-84
2022/05/15 12:12:32;;;;;;;8.88;2.50;;;29.00;32.20;;;;;;5010342;28;20041;-82
2022/05/15 12:15:06;;;;;;;9.38;3.00;;;29.40;31.30;;;;;;5017608;28;20404;-81
2022/05/15 12:17:34;;;;;;;6.15;2.50;;;29.30;31.60;;;;;;5022959;28;20042;-81
2022/05/15 12:20:20;;;;;;;7.18;3.05;;;29.10;31.20;;;;;;5025372;28;20067;-83
2022/05/15 12:22:58;;;;;;;5.75;2.53;;;29.00;31.60;;;;;;5020353;28;20065;-84
2022/05/15 12:25:29;;;;;;;8.50;3.40;;;28.90;31.90;;;;;;5020749;28;20163;-85
2022/05/15 12:31:09;;;;;;;8.13;2.78;;;29.20;32.40;;;;;;5013454;28;20084;-84
2022/05/15 12:33:40;;;;;;;10.02;3.20;;;29.50;31.70;;;;;;5018379;28;20033;-83
2022/05/15 12:36:17;;;;;;;6.10;2.60;;;29.50;31.50;;;;;;5019736;28;20044;-83
2022/05/15 12:38:48;;;;;;;6.55;2.65;;;29.10;31.70;;;;;;5016863;28;20044;-82
2022/05/15 12:41:22;;;;;;;7.63;2.42;;;29.10;32.30;;;;;;5017182;28;20081;-84
2022/05/15 12:43:51;;;;;;;8.65;2.85;;;29.30;32.50;;;;;;5015468;28;20033;-83
2022/05/15 12:46:32;;;;;;;5.93;2.80;;;29.30;32.30;;;;;;5023725;28;20655;-86
2022/05/15 12:48:59;;;;;;;9.40;3.30;;;29.00;32.50;;;;;;5007505;28;20432;-83
2022/05/15 12:51:40;;;;;;;7.05;3.05;;;28.70;33.70;;;;;;5011195;28;20107;-81
2022/05/15 12:54:24;;;;;;;9.57;2.90;;;28.80;33.80;;;;;;5008163;28;20049;-85
2022/05/15 12:57:05;;;;;;;8.57;2.90;;;28.80;34.50;;;;;;5012886;28;20077;-82
2022/05/15 12:59:36;;;;;;;8.35;3.10;;;28.90;34.80;;;;;;5012058;28;20038;-85
2022/05/15 13:02:20;;;;;;;6.25;2.80;;;28.90;34.10;;;;;;5012054;28;20038;-82
2022/05/15 13:04:49;;;;;;;8.38;2.70;;;28.90;34.00;;;;;;5019115;28;21025;-84
2022/05/15 13:07:15;;;;;;;7.53;2.92;;;28.50;33.80;;;;;;5013046;28;20500;-82
2022/05/15 13:09:40;;;;;;;11.45;3.40;;;28.60;34.90;;;;;;5008444;28;20038;-82